createdAt,value
2018-07-20T00:01:09.414Z,21.20
2018-07-20T00:06:12.487Z,21.20
2018-07-20T00:11:15.578Z,21.10
2018-07-20T00:16:18.680Z,21.10
2018-07-20T00:21:21.755Z,21.10
2018-07-20T00:26:31.383Z,21.10
2018-07-20T00:31:34.558Z,21.20
2018-07-20T00:36:37.661Z,21.10
2018-07-20T00:41:41.027Z,21.00
2018-07-20T00:46:44.111Z,20.90
2018-07-20T00:51:47.207Z,20.80
2018-07-20T00:56:50.306Z,20.70
2018-07-20T01:01:53.414Z,20.70
2018-07-20T01:06:56.507Z,20.60
2018-07-20T01:11:59.587Z,20.60
2018-07-20T01:17:02.650Z,20.50
2018-07-20T01:22:05.725Z,20.40
2018-07-20T01:27:08.855Z,20.40
2018-07-20T01:32:11.911Z,20.40
2018-07-20T01:37:14.982Z,20.40
2018-07-20T01:42:18.072Z,20.40
2018-07-20T01:47:21.130Z,20.40
2018-07-20T01:52:24.182Z,20.30
2018-07-20T01:57:27.282Z,20.30
2018-07-20T02:02:30.414Z,20.40
2018-07-20T02:07:33.486Z,20.40
2018-07-20T02:12:36.602Z,20.40
2018-07-20T02:17:39.711Z,20.40
2018-07-20T02:22:49.396Z,20.40
2018-07-20T02:27:52.603Z,20.30
2018-07-20T02:32:55.701Z,20.20
2018-07-20T02:37:58.832Z,20.20
2018-07-20T02:43:01.937Z,20.20
2018-07-20T02:48:05.056Z,20.20
2018-07-20T02:53:08.173Z,20.20
2018-07-20T02:58:11.271Z,20.20
2018-07-20T03:03:14.396Z,20.20
2018-07-20T03:08:17.508Z,20.10
2018-07-20T03:13:20.636Z,20.00
2018-07-20T03:18:23.737Z,20.00
2018-07-20T03:23:26.893Z,19.90
2018-07-20T03:28:29.992Z,19.90
2018-07-20T03:33:33.123Z,19.90
2018-07-20T03:38:36.232Z,19.80
2018-07-20T03:43:39.349Z,19.80
2018-07-20T03:48:42.473Z,19.70
2018-07-20T03:53:45.596Z,19.70
2018-07-20T03:58:48.708Z,19.60
2018-07-20T04:03:51.806Z,19.60
2018-07-20T04:08:54.915Z,19.50
2018-07-20T04:13:58.055Z,19.50
2018-07-20T04:19:01.177Z,19.50
2018-07-20T04:24:04.300Z,19.50
2018-07-20T04:29:07.432Z,19.50
2018-07-20T04:34:10.571Z,19.60
2018-07-20T04:39:14.949Z,19.60
2018-07-20T04:44:18.044Z,19.60
2018-07-20T04:49:21.258Z,19.60
2018-07-20T04:54:24.416Z,19.60
2018-07-20T04:59:27.632Z,19.60
2018-07-20T05:04:30.835Z,19.60
2018-07-20T05:09:33.933Z,19.60
2018-07-20T05:19:39.987Z,19.70
2018-07-20T05:24:43.096Z,19.80
2018-07-20T05:29:46.195Z,19.90
2018-07-20T05:34:49.328Z,19.90
2018-07-20T05:39:52.488Z,20.00
2018-07-20T05:44:55.577Z,20.10
2018-07-20T05:49:58.673Z,20.20
2018-07-20T06:05:07.851Z,20.60
2018-07-20T06:10:10.959Z,20.70
2018-07-20T06:15:14.092Z,20.70
2018-07-20T06:20:17.197Z,20.80
2018-07-20T06:25:20.330Z,20.90
2018-07-20T06:30:23.472Z,21.10
2018-07-20T06:35:26.677Z,21.10
2018-07-20T06:40:29.779Z,21.20
2018-07-20T06:45:33.017Z,21.30
2018-07-20T06:50:36.228Z,21.50
2018-07-20T06:55:39.314Z,21.60
2018-07-20T07:00:42.435Z,21.70
2018-07-20T07:05:45.516Z,21.80
2018-07-20T07:10:48.639Z,22.10
2018-07-20T07:15:51.728Z,22.20
2018-07-20T07:20:54.848Z,22.20
2018-07-20T07:25:58.003Z,22.30
2018-07-20T07:31:01.074Z,22.40
2018-07-20T07:36:04.189Z,22.60
2018-07-20T07:41:07.359Z,22.70
2018-07-20T07:46:10.457Z,22.90
2018-07-20T07:51:13.567Z,22.90
2018-07-20T07:56:16.656Z,23.10
2018-07-20T08:01:19.776Z,23.30
2018-07-20T08:06:22.920Z,23.40
2018-07-20T08:11:26.109Z,23.60
2018-07-20T08:16:29.207Z,23.80
2018-07-20T08:21:32.296Z,24.10
2018-07-20T08:31:38.377Z,24.40
2018-07-20T08:36:41.494Z,24.50
2018-07-20T08:41:44.613Z,24.70
2018-07-20T08:46:47.823Z,24.90
2018-07-20T08:51:50.935Z,25.00
2018-07-20T09:01:56.969Z,25.30
2018-07-20T09:07:00.074Z,25.50
2018-07-20T09:12:03.193Z,25.80
2018-07-20T09:17:06.291Z,25.90
2018-07-20T09:22:09.423Z,26.00
2018-07-20T09:27:12.519Z,26.10
2018-07-20T09:32:15.609Z,26.20
2018-07-20T09:37:18.719Z,26.40
2018-07-20T09:42:21.813Z,26.50
2018-07-20T09:47:24.911Z,26.70
2018-07-20T09:52:28.058Z,26.80
2018-07-20T09:57:31.252Z,27.00
2018-07-20T10:02:34.383Z,27.20
2018-07-20T10:07:37.504Z,27.40
2018-07-20T10:12:40.628Z,27.60
2018-07-20T10:17:43.736Z,27.80
2018-07-20T10:42:27.112Z,28.10
2018-07-20T10:52:45.854Z,28.30
2018-07-20T10:57:49.218Z,28.70
2018-07-20T11:02:52.307Z,29.20
2018-07-20T11:07:55.425Z,29.40
2018-07-20T11:12:58.497Z,29.60
2018-07-20T11:18:01.639Z,29.80
2018-07-20T11:23:04.931Z,30.10
2018-07-20T11:28:08.030Z,30.20
2018-07-20T11:33:11.099Z,30.40
2018-07-20T11:38:14.243Z,30.60
2018-07-20T11:43:17.360Z,30.70
2018-07-20T11:48:20.565Z,30.80
2018-07-20T11:53:23.687Z,31.00
2018-07-20T11:58:26.915Z,31.10
2018-07-20T12:03:30.023Z,31.20
2018-07-20T12:08:33.127Z,31.30
2018-07-20T12:13:36.235Z,31.40
2018-07-20T12:18:39.312Z,31.60
2018-07-20T12:23:42.407Z,31.80
2018-07-20T12:28:45.507Z,31.90
2018-07-20T12:33:48.631Z,31.90
2018-07-20T12:38:51.780Z,32.10
2018-07-20T12:43:54.917Z,32.20
2018-07-20T12:48:57.971Z,32.40
2018-07-20T12:54:01.449Z,32.60
2018-07-20T12:59:04.919Z,32.80
2018-07-20T13:04:07.982Z,32.80
2018-07-20T13:09:12.427Z,32.80
2018-07-20T13:14:15.512Z,33.00
2018-07-20T13:19:18.615Z,33.20
2018-07-20T13:24:21.693Z,33.30
2018-07-20T13:29:24.771Z,33.40
2018-07-20T13:34:27.870Z,33.40
2018-07-20T13:39:31.048Z,33.40
2018-07-20T13:44:34.164Z,33.40
2018-07-20T13:49:37.253Z,33.40
2018-07-20T13:54:40.351Z,33.50
2018-07-20T13:59:43.608Z,33.50
2018-07-20T14:04:46.728Z,33.50
2018-07-20T14:09:49.909Z,33.50
2018-07-20T14:14:52.996Z,33.60
2018-07-20T14:19:56.120Z,33.60
2018-07-20T14:24:59.251Z,33.70
2018-07-20T14:30:02.356Z,33.70
2018-07-20T14:35:05.980Z,33.70
2018-07-20T14:40:09.477Z,33.50
2018-07-20T14:45:12.648Z,33.40
2018-07-20T14:50:15.770Z,33.10
2018-07-20T14:55:18.889Z,32.70
2018-07-20T15:00:22.016Z,32.70
2018-07-20T15:05:25.108Z,32.50
2018-07-20T15:10:28.238Z,32.50
2018-07-20T15:15:31.314Z,32.40
2018-07-20T15:20:34.423Z,32.20
2018-07-20T15:25:37.663Z,32.20
2018-07-20T15:30:40.767Z,32.20
2018-07-20T15:35:43.863Z,32.10
2018-07-20T15:40:47.060Z,31.80
2018-07-20T15:46:05.768Z,31.80
2018-07-20T15:50:53.376Z,31.70
2018-07-20T15:55:56.577Z,31.50
2018-07-20T16:00:59.678Z,31.50
2018-07-20T16:06:02.796Z,31.40
2018-07-20T16:11:05.960Z,31.20
2018-07-20T16:16:09.068Z,31.10
2018-07-20T16:21:12.140Z,31.00
2018-07-20T16:26:15.245Z,30.90
2018-07-20T16:31:18.415Z,30.80
2018-07-20T16:36:21.514Z,30.60
2018-07-20T16:41:24.629Z,30.50
2018-07-20T16:46:27.740Z,30.40
2018-07-20T16:51:30.879Z,30.20
2018-07-20T16:56:34.051Z,30.00
2018-07-20T17:01:37.140Z,29.90
2018-07-20T17:06:40.420Z,29.80
2018-07-20T17:11:43.532Z,29.60
2018-07-20T17:16:46.767Z,29.40
2018-07-20T17:21:49.898Z,29.30
2018-07-20T17:26:53.080Z,29.10
2018-07-20T17:31:56.760Z,29.00
2018-07-20T17:37:00.512Z,29.00
2018-07-20T17:42:04.344Z,29.00
2018-07-20T17:47:07.792Z,28.70
2018-07-20T17:52:11.640Z,28.50
2018-07-20T17:57:15.535Z,28.40
2018-07-20T18:02:19.187Z,28.30
2018-07-20T18:07:22.291Z,28.30
2018-07-20T18:12:25.371Z,28.10
2018-07-20T18:17:28.476Z,28.10
2018-07-20T18:22:31.552Z,28.10
2018-07-20T18:27:34.648Z,28.00
2018-07-20T18:32:37.836Z,27.90
2018-07-20T18:37:41.127Z,27.80
2018-07-20T18:42:44.306Z,27.60
2018-07-20T18:47:47.438Z,27.50
2018-07-20T18:52:50.551Z,27.50
2018-07-20T18:57:53.764Z,27.40
2018-07-20T19:02:56.951Z,27.30
2018-07-20T19:08:00.164Z,27.20
2018-07-20T19:13:03.370Z,27.10
2018-07-20T19:18:06.576Z,27.10
2018-07-20T19:23:09.783Z,26.90
2018-07-20T19:28:12.985Z,26.70
2018-07-20T19:33:16.181Z,26.40
2018-07-20T19:38:19.308Z,26.20
2018-07-20T19:43:22.531Z,26.10
2018-07-20T19:48:25.736Z,26.10
2018-07-20T19:53:29.008Z,26.00
2018-07-20T19:58:32.103Z,25.80
2018-07-20T20:03:35.408Z,25.70
2018-07-20T20:08:38.498Z,25.60
2018-07-20T20:13:41.634Z,25.50
2018-07-20T20:23:47.656Z,25.10
2018-07-20T20:28:50.767Z,25.00
2018-07-20T20:33:55.010Z,24.90
2018-07-20T20:38:58.930Z,24.80
2018-07-20T20:44:02.926Z,24.70
2018-07-20T20:49:06.070Z,24.60
2018-07-20T20:54:09.165Z,24.50
2018-07-20T20:59:12.323Z,24.40
2018-07-20T21:04:15.547Z,24.30
2018-07-20T21:09:18.608Z,24.30
2018-07-20T21:14:21.720Z,24.30
2018-07-20T21:19:24.851Z,24.20
2018-07-20T21:24:27.971Z,24.20
2018-07-20T21:29:31.060Z,24.20
2018-07-20T21:34:34.239Z,24.10
2018-07-20T21:39:37.381Z,24.10
2018-07-20T21:44:40.456Z,24.00
2018-07-20T21:49:43.580Z,23.90
2018-07-20T21:54:46.687Z,23.70
2018-07-20T21:59:49.779Z,23.70
2018-07-20T22:04:52.892Z,23.60
2018-07-20T22:09:56.028Z,23.50
2018-07-20T22:14:59.948Z,23.50
2018-07-20T22:20:03.383Z,23.40
2018-07-20T22:25:07.232Z,23.30
2018-07-20T22:30:10.824Z,23.20
2018-07-20T22:35:13.981Z,23.10
2018-07-20T22:40:17.068Z,23.00
2018-07-20T22:45:20.165Z,22.90
2018-07-20T22:50:23.291Z,22.90
2018-07-20T22:55:26.434Z,22.80
2018-07-20T23:00:29.555Z,22.70
2018-07-20T23:05:32.659Z,22.60
2018-07-20T23:10:35.803Z,22.60
2018-07-20T23:20:41.941Z,22.50
2018-07-20T23:25:44.995Z,22.40
2018-07-20T23:30:48.122Z,22.40
2018-07-20T23:35:51.217Z,22.30
2018-07-20T23:40:54.339Z,22.20
2018-07-20T23:45:57.460Z,22.10
2018-07-20T23:51:00.719Z,22.10
2018-07-20T23:56:03.853Z,22.10
